sensor_id;sensor_type;location;lat;lon;timestamp;temperature;humidity
1602;DHT22;794;48.592;9.634;2024-03-08T00:00:44;3.50;1.00
1602;DHT22;794;48.592;9.634;2024-03-08T00:03:11;2.20;1.00
1602;DHT22;794;48.592;9.634;2024-03-08T00:05:38;2.10;1.00
1602;DHT22;794;48.592;9.634;2024-03-08T00:08:06;2.40;1.00
1602;DHT22;794;48.592;9.634;2024-03-08T00:10:35;2.00;1.00
1602;DHT22;794;48.592;9.634;2024-03-08T00:13:05;2.20;1.00
1602;DHT22;794;48.592;9.634;2024-03-08T00:15:32;2.30;1.00
1602;DHT22;794;48.592;9.634;2024-03-08T00:18:00;2.30;1.00
1602;DHT22;794;48.592;9.634;2024-03-08T00:20:27;2.40;1.00
1602;DHT22;794;48.592;9.634;2024-03-08T00:22:54;2.40;1.00
1602;DHT22;794;48.592;9.634;2024-03-08T00:25:23;3.20;1.00
1602;DHT22;794;48.592;9.634;2024-03-08T00:27:50;2.60;1.00
1602;DHT22;794;48.592;9.634;2024-03-08T00:30:23;2.70;1.00
1602;DHT22;794;48.592;9.634;2024-03-08T00:32:50;3.10;1.00
1602;DHT22;794;48.592;9.634;2024-03-08T00:35:17;2.60;1.00
1602;DHT22;794;48.592;9.634;2024-03-08T00:37:44;3.50;1.00
1602;DHT22;794;48.592;9.634;2024-03-08T00:40:13;2.40;1.00
1602;DHT22;794;48.592;9.634;2024-03-08T00:42:40;2.00;1.00
1602;DHT22;794;48.592;9.634;2024-03-08T00:45:10;3.00;1.00
1602;DHT22;794;48.592;9.634;2024-03-08T00:47:38;2.00;1.00
1602;DHT22;794;48.592;9.634;2024-03-08T00:50:06;3.20;1.00
1602;DHT22;794;48.592;9.634;2024-03-08T00:52:33;1.80;1.00
1602;DHT22;794;48.592;9.634;2024-03-08T00:55:00;2.10;1.00
1602;DHT22;794;48.592;9.634;2024-03-08T00:57:27;3.40;1.00
1602;DHT22;794;48.592;9.634;2024-03-08T00:59:55;1.80;1.00
1602;DHT22;794;48.592;9.634;2024-03-08T01:02:21;2.50;1.00
1602;DHT22;794;48.592;9.634;2024-03-08T01:04:50;1.70;1.00
1602;DHT22;794;48.592;9.634;2024-03-08T01:07:17;1.80;1.00
1602;DHT22;794;48.592;9.634;2024-03-08T01:09:44;2.80;1.00
1602;DHT22;794;48.592;9.634;2024-03-08T01:12:11;3.30;1.00
1602;DHT22;794;48.592;9.634;2024-03-08T01:14:38;3.30;1.00
1602;DHT22;794;48.592;9.634;2024-03-08T01:17:05;1.80;1.00
1602;DHT22;794;48.592;9.634;2024-03-08T01:19:32;3.30;1.00
1602;DHT22;794;48.592;9.634;2024-03-08T01:22:00;1.60;1.00
1602;DHT22;794;48.592;9.634;2024-03-08T01:24:28;3.80;1.00
1602;DHT22;794;48.592;9.634;2024-03-08T01:26:55;1.80;1.00
1602;DHT22;794;48.592;9.634;2024-03-08T01:29:22;1.80;1.00
1602;DHT22;794;48.592;9.634;2024-03-08T01:31:49;2.90;1.00
1602;DHT22;794;48.592;9.634;2024-03-08T01:34:18;1.60;1.00
1602;DHT22;794;48.592;9.634;2024-03-08T01:36:44;0.80;1.00
1602;DHT22;794;48.592;9.634;2024-03-08T01:39:13;1.80;1.00
1602;DHT22;794;48.592;9.634;2024-03-08T01:41:40;2.50;1.00
1602;DHT22;794;48.592;9.634;2024-03-08T01:44:07;2.20;1.00
1602;DHT22;794;48.592;9.634;2024-03-08T01:46:35;1.80;1.00
1602;DHT22;794;48.592;9.634;2024-03-08T01:49:02;2.10;1.00
1602;DHT22;794;48.592;9.634;2024-03-08T01:51:29;1.80;1.00
1602;DHT22;794;48.592;9.634;2024-03-08T01:53:57;3.00;1.00
1602;DHT22;794;48.592;9.634;2024-03-08T01:56:26;1.80;1.00
1602;DHT22;794;48.592;9.634;2024-03-08T01:58:53;2.50;1.00
1602;DHT22;794;48.592;9.634;2024-03-08T02:01:21;3.20;1.00
1602;DHT22;794;48.592;9.634;2024-03-08T02:03:48;2.00;1.00
1602;DHT22;794;48.592;9.634;2024-03-08T02:06:16;3.30;1.00
1602;DHT22;794;48.592;9.634;2024-03-08T02:08:43;2.90;1.00
1602;DHT22;794;48.592;9.634;2024-03-08T02:11:10;1.70;1.00
1602;DHT22;794;48.592;9.634;2024-03-08T02:13:39;1.80;1.00
1602;DHT22;794;48.592;9.634;2024-03-08T02:16:06;3.40;1.00
1602;DHT22;794;48.592;9.634;2024-03-08T02:18:34;1.90;1.00
1602;DHT22;794;48.592;9.634;2024-03-08T02:21:03;2.40;1.00
1602;DHT22;794;48.592;9.634;2024-03-08T02:23:30;1.70;1.00
1602;DHT22;794;48.592;9.634;2024-03-08T02:25:58;2.70;1.00
1602;DHT22;794;48.592;9.634;2024-03-08T02:28:25;1.40;1.00
1602;DHT22;794;48.592;9.634;2024-03-08T02:30:53;1.60;1.00
1602;DHT22;794;48.592;9.634;2024-03-08T02:33:22;2.40;1.00
1602;DHT22;794;48.592;9.634;2024-03-08T02:35:49;2.90;1.00
1602;DHT22;794;48.592;9.634;2024-03-08T02:38:19;2.60;1.00
1602;DHT22;794;48.592;9.634;2024-03-08T02:40:48;3.10;1.00
1602;DHT22;794;48.592;9.634;2024-03-08T02:43:16;2.00;1.00
1602;DHT22;794;48.592;9.634;2024-03-08T02:45:43;3.30;1.00
1602;DHT22;794;48.592;9.634;2024-03-08T02:48:10;3.60;1.00
1602;DHT22;794;48.592;9.634;2024-03-08T02:50:38;1.90;1.00
1602;DHT22;794;48.592;9.634;2024-03-08T02:53:06;2.00;1.00
1602;DHT22;794;48.592;9.634;2024-03-08T02:55:34;2.90;1.00
1602;DHT22;794;48.592;9.634;2024-03-08T02:58:01;2.70;1.00
1602;DHT22;794;48.592;9.634;2024-03-08T03:00:29;2.40;1.00
1602;DHT22;794;48.592;9.634;2024-03-08T03:02:56;3.80;1.00
1602;DHT22;794;48.592;9.634;2024-03-08T03:05:23;3.90;1.00
1602;DHT22;794;48.592;9.634;2024-03-08T03:07:51;1.30;1.00
1602;DHT22;794;48.592;9.634;2024-03-08T03:10:18;1.90;1.00
1602;DHT22;794;48.592;9.634;2024-03-08T03:12:48;2.00;1.00
1602;DHT22;794;48.592;9.634;2024-03-08T03:15:15;2.10;1.00
1602;DHT22;794;48.592;9.634;2024-03-08T03:17:46;3.90;1.00
1602;DHT22;794;48.592;9.634;2024-03-08T03:20:14;3.50;1.00
1602;DHT22;794;48.592;9.634;2024-03-08T03:22:48;1.90;1.00
1602;DHT22;794;48.592;9.634;2024-03-08T03:25:18;2.10;1.00
1602;DHT22;794;48.592;9.634;2024-03-08T03:27:51;2.20;1.00
1602;DHT22;794;48.592;9.634;2024-03-08T03:30:18;2.00;1.00
1602;DHT22;794;48.592;9.634;2024-03-08T03:32:47;4.10;1.00
1602;DHT22;794;48.592;9.634;2024-03-08T03:35:16;3.80;1.00
1602;DHT22;794;48.592;9.634;2024-03-08T03:37:44;3.80;1.00
1602;DHT22;794;48.592;9.634;2024-03-08T03:40:17;3.30;1.00
1602;DHT22;794;48.592;9.634;2024-03-08T03:45:14;2.10;1.00
1602;DHT22;794;48.592;9.634;2024-03-08T03:47:45;2.20;1.00
1602;DHT22;794;48.592;9.634;2024-03-08T03:50:12;2.10;1.00
1602;DHT22;794;48.592;9.634;2024-03-08T03:52:39;2.70;1.00
1602;DHT22;794;48.592;9.634;2024-03-08T03:55:08;2.00;1.00
1602;DHT22;794;48.592;9.634;2024-03-08T03:57:37;2.20;1.00
1602;DHT22;794;48.592;9.634;2024-03-08T04:00:06;2.30;1.00
1602;DHT22;794;48.592;9.634;2024-03-08T04:02:37;2.20;1.00
1602;DHT22;794;48.592;9.634;2024-03-08T04:05:05;2.20;1.00
1602;DHT22;794;48.592;9.634;2024-03-08T04:07:32;2.20;1.00
1602;DHT22;794;48.592;9.634;2024-03-08T04:10:00;3.40;1.00
1602;DHT22;794;48.592;9.634;2024-03-08T04:12:27;3.20;1.00
1602;DHT22;794;48.592;9.634;2024-03-08T04:14:56;2.00;1.00
1602;DHT22;794;48.592;9.634;2024-03-08T04:17:23;2.80;1.00
1602;DHT22;794;48.592;9.634;2024-03-08T04:19:52;3.40;1.00
1602;DHT22;794;48.592;9.634;2024-03-08T04:22:20;3.40;1.00
1602;DHT22;794;48.592;9.634;2024-03-08T04:24:47;3.20;1.00
1602;DHT22;794;48.592;9.634;2024-03-08T04:27:14;2.60;1.00
1602;DHT22;794;48.592;9.634;2024-03-08T04:29:41;2.20;1.00
1602;DHT22;794;48.592;9.634;2024-03-08T04:32:10;2.30;1.00
1602;DHT22;794;48.592;9.634;2024-03-08T04:34:39;2.00;1.00
1602;DHT22;794;48.592;9.634;2024-03-08T04:37:08;2.40;1.00
1602;DHT22;794;48.592;9.634;2024-03-08T04:39:36;1.90;1.00
1602;DHT22;794;48.592;9.634;2024-03-08T04:42:05;3.40;1.00
1602;DHT22;794;48.592;9.634;2024-03-08T04:44:35;1.80;1.00
1602;DHT22;794;48.592;9.634;2024-03-08T04:47:03;1.10;1.00
1602;DHT22;794;48.592;9.634;2024-03-08T04:49:31;1.80;1.00
1602;DHT22;794;48.592;9.634;2024-03-08T04:52:01;1.70;1.00
1602;DHT22;794;48.592;9.634;2024-03-08T04:54:29;3.40;1.00
1602;DHT22;794;48.592;9.634;2024-03-08T04:56:57;2.00;1.00
1602;DHT22;794;48.592;9.634;2024-03-08T04:59:25;2.80;1.00
1602;DHT22;794;48.592;9.634;2024-03-08T05:01:53;2.10;1.00
1602;DHT22;794;48.592;9.634;2024-03-08T05:04:20;3.60;1.00
1602;DHT22;794;48.592;9.634;2024-03-08T05:06:47;2.10;1.00
1602;DHT22;794;48.592;9.634;2024-03-08T05:09:15;3.60;1.00
1602;DHT22;794;48.592;9.634;2024-03-08T05:11:45;2.20;1.00
1602;DHT22;794;48.592;9.634;2024-03-08T05:14:13;2.90;1.00
1602;DHT22;794;48.592;9.634;2024-03-08T05:16:42;2.60;1.00
1602;DHT22;794;48.592;9.634;2024-03-08T05:19:09;3.40;1.00
1602;DHT22;794;48.592;9.634;2024-03-08T05:21:36;3.00;1.00
1602;DHT22;794;48.592;9.634;2024-03-08T05:24:03;2.80;1.00
1602;DHT22;794;48.592;9.634;2024-03-08T05:26:30;2.00;1.00
1602;DHT22;794;48.592;9.634;2024-03-08T05:29:00;1.90;1.00
1602;DHT22;794;48.592;9.634;2024-03-08T05:31:27;2.00;1.00
1602;DHT22;794;48.592;9.634;2024-03-08T05:33:54;2.30;1.00
1602;DHT22;794;48.592;9.634;2024-03-08T05:36:21;2.10;1.00
1602;DHT22;794;48.592;9.634;2024-03-08T05:38:48;2.70;1.00
1602;DHT22;794;48.592;9.634;2024-03-08T05:41:16;3.90;1.00
1602;DHT22;794;48.592;9.634;2024-03-08T05:43:43;2.00;1.00
1602;DHT22;794;48.592;9.634;2024-03-08T05:46:15;2.20;1.00
1602;DHT22;794;48.592;9.634;2024-03-08T05:51:10;1.90;1.00
1602;DHT22;794;48.592;9.634;2024-03-08T05:53:38;1.80;1.00
1602;DHT22;794;48.592;9.634;2024-03-08T05:56:06;1.90;1.00
1602;DHT22;794;48.592;9.634;2024-03-08T05:58:35;2.00;1.00
1602;DHT22;794;48.592;9.634;2024-03-08T06:01:01;2.90;1.00
1602;DHT22;794;48.592;9.634;2024-03-08T06:03:34;1.80;1.00
1602;DHT22;794;48.592;9.634;2024-03-08T06:06:01;1.90;1.00
1602;DHT22;794;48.592;9.634;2024-03-08T06:08:29;2.00;1.00
1602;DHT22;794;48.592;9.634;2024-03-08T06:38:15;2.00;1.00
1602;DHT22;794;48.592;9.634;2024-03-08T10:00:16;5.30;1.00
1602;DHT22;794;48.592;9.634;2024-03-08T10:02:50;5.20;1.00
1602;DHT22;794;48.592;9.634;2024-03-08T10:05:18;5.50;1.00
1602;DHT22;794;48.592;9.634;2024-03-08T10:12:40;5.60;1.00
1602;DHT22;794;48.592;9.634;2024-03-08T10:15:08;5.80;1.00
1602;DHT22;794;48.592;9.634;2024-03-08T10:17:36;5.80;1.00
1602;DHT22;794;48.592;9.634;2024-03-08T10:20:13;5.90;1.00
1602;DHT22;794;48.592;9.634;2024-03-08T10:25:10;6.30;1.00
1602;DHT22;794;48.592;9.634;2024-03-08T10:27:38;5.90;1.00
1602;DHT22;794;48.592;9.634;2024-03-08T10:30:10;5.90;1.00
1602;DHT22;794;48.592;9.634;2024-03-08T10:32:39;5.80;1.00
1602;DHT22;794;48.592;9.634;2024-03-08T10:35:07;5.70;1.00
1602;DHT22;794;48.592;9.634;2024-03-08T10:37:37;5.60;1.00
1602;DHT22;794;48.592;9.634;2024-03-08T10:40:17;6.30;1.00
1602;DHT22;794;48.592;9.634;2024-03-08T10:42:53;6.30;1.00
1602;DHT22;794;48.592;9.634;2024-03-08T10:45:32;6.20;1.00
1602;DHT22;794;48.592;9.634;2024-03-08T10:48:14;6.90;1.00
1602;DHT22;794;48.592;9.634;2024-03-08T10:50:44;6.70;1.00
1602;DHT22;794;48.592;9.634;2024-03-08T10:53:13;6.70;1.00
1602;DHT22;794;48.592;9.634;2024-03-08T10:55:42;6.50;1.00
1602;DHT22;794;48.592;9.634;2024-03-08T11:05:37;7.60;1.00
1602;DHT22;794;48.592;9.634;2024-03-08T11:08:15;7.40;1.00
1602;DHT22;794;48.592;9.634;2024-03-08T11:10:47;7.20;1.00
1602;DHT22;794;48.592;9.634;2024-03-08T11:13:34;7.10;1.00
1602;DHT22;794;48.592;9.634;2024-03-08T11:18:32;7.90;1.00
1602;DHT22;794;48.592;9.634;2024-03-08T11:21:04;8.20;1.00
1602;DHT22;794;48.592;9.634;2024-03-08T11:28:31;9.80;1.00
1602;DHT22;794;48.592;9.634;2024-03-08T11:31:23;8.50;1.00
1602;DHT22;794;48.592;9.634;2024-03-08T11:36:22;7.60;1.00
1602;DHT22;794;48.592;9.634;2024-03-08T11:45:48;7.70;1.00
1602;DHT22;794;48.592;9.634;2024-03-08T11:53:25;7.70;1.00
1602;DHT22;794;48.592;9.634;2024-03-08T12:00:49;7.40;1.00
1602;DHT22;794;48.592;9.634;2024-03-08T12:08:14;7.30;1.00
1602;DHT22;794;48.592;9.634;2024-03-08T12:15:39;7.50;1.00
1602;DHT22;794;48.592;9.634;2024-03-08T12:25:34;7.30;1.00
1602;DHT22;794;48.592;9.634;2024-03-08T12:28:07;7.10;1.00
1602;DHT22;794;48.592;9.634;2024-03-08T12:30:46;6.80;1.00
1602;DHT22;794;48.592;9.634;2024-03-08T12:40:37;7.00;1.00
1602;DHT22;794;48.592;9.634;2024-03-08T12:48:02;6.80;1.00
1602;DHT22;794;48.592;9.634;2024-03-08T12:57:52;6.90;1.00
1602;DHT22;794;48.592;9.634;2024-03-08T13:02:49;7.30;1.00
1602;DHT22;794;48.592;9.634;2024-03-08T13:12:40;6.50;1.00
1602;DHT22;794;48.592;9.634;2024-03-08T13:15:09;6.90;1.00
1602;DHT22;794;48.592;9.634;2024-03-08T13:20:09;7.40;1.00
1602;DHT22;794;48.592;9.634;2024-03-08T13:30:07;7.60;1.00
1602;DHT22;794;48.592;9.634;2024-03-08T13:32:39;7.60;1.00
1602;DHT22;794;48.592;9.634;2024-03-08T13:40:06;7.90;1.00
1602;DHT22;794;48.592;9.634;2024-03-08T13:42:36;7.90;1.00
1602;DHT22;794;48.592;9.634;2024-03-08T13:45:05;7.80;1.00
1602;DHT22;794;48.592;9.634;2024-03-08T13:50:03;8.10;1.00
1602;DHT22;794;48.592;9.634;2024-03-08T13:52:32;8.00;1.00
1602;DHT22;794;48.592;9.634;2024-03-08T14:07:22;8.00;1.00
1602;DHT22;794;48.592;9.634;2024-03-08T14:14:49;7.90;1.00
1602;DHT22;794;48.592;9.634;2024-03-08T14:19:43;7.70;1.00
1602;DHT22;794;48.592;9.634;2024-03-08T14:24:41;7.60;1.00
1602;DHT22;794;48.592;9.634;2024-03-08T14:37:00;7.60;1.00
1602;DHT22;794;48.592;9.634;2024-03-08T14:42:00;7.70;1.00
1602;DHT22;794;48.592;9.634;2024-03-08T14:56:48;7.80;1.00
1602;DHT22;794;48.592;9.634;2024-03-08T14:59:17;8.00;1.00
1602;DHT22;794;48.592;9.634;2024-03-08T15:04:12;8.00;1.00
1602;DHT22;794;48.592;9.634;2024-03-08T15:06:40;8.10;1.00
1602;DHT22;794;48.592;9.634;2024-03-08T15:09:08;8.00;1.00
1602;DHT22;794;48.592;9.634;2024-03-08T15:11:44;8.00;1.00
1602;DHT22;794;48.592;9.634;2024-03-08T15:16:40;8.20;1.00
1602;DHT22;794;48.592;9.634;2024-03-08T15:24:06;8.00;1.00
1602;DHT22;794;48.592;9.634;2024-03-08T15:31:34;8.40;1.00
1602;DHT22;794;48.592;9.634;2024-03-08T15:34:02;7.90;1.00
1602;DHT22;794;48.592;9.634;2024-03-08T15:36:32;6.80;1.00
1602;DHT22;794;48.592;9.634;2024-03-08T15:51:19;7.90;1.00
1602;DHT22;794;48.592;9.634;2024-03-08T16:08:38;7.70;1.00
1602;DHT22;794;48.592;9.634;2024-03-08T16:13:34;7.80;1.00
1602;DHT22;794;48.592;9.634;2024-03-08T16:23:30;7.80;1.00
1602;DHT22;794;48.592;9.634;2024-03-08T16:25:58;7.60;1.00
1602;DHT22;794;48.592;9.634;2024-03-08T16:38:17;7.50;1.00
1602;DHT22;794;48.592;9.634;2024-03-08T16:40:48;7.40;1.00
1602;DHT22;794;48.592;9.634;2024-03-08T16:43:18;7.50;1.00
1602;DHT22;794;48.592;9.634;2024-03-08T16:45:47;7.30;1.00
1602;DHT22;794;48.592;9.634;2024-03-08T17:00:41;7.10;1.00
1602;DHT22;794;48.592;9.634;2024-03-08T17:13:06;6.50;1.00
1602;DHT22;794;48.592;9.634;2024-03-08T17:15:33;6.80;1.00
1602;DHT22;794;48.592;9.634;2024-03-08T17:18:09;6.10;1.00
1602;DHT22;794;48.592;9.634;2024-03-08T17:20:36;6.60;1.00
1602;DHT22;794;48.592;9.634;2024-03-08T17:23:07;6.50;1.00
1602;DHT22;794;48.592;9.634;2024-03-08T17:25:35;6.40;1.00
1602;DHT22;794;48.592;9.634;2024-03-08T17:30:32;6.30;1.00
1602;DHT22;794;48.592;9.634;2024-03-08T17:33:05;5.90;1.00
1602;DHT22;794;48.592;9.634;2024-03-08T17:35:35;6.50;1.00
1602;DHT22;794;48.592;9.634;2024-03-08T17:38:04;6.30;1.00
1602;DHT22;794;48.592;9.634;2024-03-08T17:40:36;6.50;1.00
1602;DHT22;794;48.592;9.634;2024-03-08T17:43:06;5.90;1.00
1602;DHT22;794;48.592;9.634;2024-03-08T17:45:37;5.90;1.00
1602;DHT22;794;48.592;9.634;2024-03-08T17:48:08;6.20;1.00
1602;DHT22;794;48.592;9.634;2024-03-08T17:53:05;5.60;1.00
1602;DHT22;794;48.592;9.634;2024-03-08T17:55:33;6.10;1.00
1602;DHT22;794;48.592;9.634;2024-03-08T18:00:31;5.80;1.00
1602;DHT22;794;48.592;9.634;2024-03-08T18:03:01;5.60;1.00
1602;DHT22;794;48.592;9.634;2024-03-08T18:05:32;5.40;1.00
1602;DHT22;794;48.592;9.634;2024-03-08T18:08:02;5.90;1.00
1602;DHT22;794;48.592;9.634;2024-03-08T18:10:31;5.70;1.00
1602;DHT22;794;48.592;9.634;2024-03-08T18:13:00;6.00;1.00
1602;DHT22;794;48.592;9.634;2024-03-08T18:15:29;5.80;1.00
1602;DHT22;794;48.592;9.634;2024-03-08T18:17:57;5.80;1.00
1602;DHT22;794;48.592;9.634;2024-03-08T18:20:29;5.60;1.00
1602;DHT22;794;48.592;9.634;2024-03-08T18:22:59;5.80;1.00
1602;DHT22;794;48.592;9.634;2024-03-08T18:25:28;5.90;1.00
1602;DHT22;794;48.592;9.634;2024-03-08T18:27:55;6.00;1.00
1602;DHT22;794;48.592;9.634;2024-03-08T18:30:24;5.90;1.00
1602;DHT22;794;48.592;9.634;2024-03-08T18:32:52;5.80;1.00
1602;DHT22;794;48.592;9.634;2024-03-08T18:35:19;5.70;1.00
1602;DHT22;794;48.592;9.634;2024-03-08T18:37:47;5.90;1.00
1602;DHT22;794;48.592;9.634;2024-03-08T18:40:17;5.30;1.00
1602;DHT22;794;48.592;9.634;2024-03-08T18:42:47;5.50;1.00
1602;DHT22;794;48.592;9.634;2024-03-08T18:45:16;5.50;1.00
1602;DHT22;794;48.592;9.634;2024-03-08T18:47:44;5.50;1.00
1602;DHT22;794;48.592;9.634;2024-03-08T18:50:13;5.90;1.00
1602;DHT22;794;48.592;9.634;2024-03-08T18:52:42;5.70;1.00
1602;DHT22;794;48.592;9.634;2024-03-08T18:55:10;5.30;1.00
1602;DHT22;794;48.592;9.634;2024-03-08T18:57:40;6.20;1.00
1602;DHT22;794;48.592;9.634;2024-03-08T19:00:10;5.50;1.00
1602;DHT22;794;48.592;9.634;2024-03-08T19:02:40;5.40;1.00
1602;DHT22;794;48.592;9.634;2024-03-08T19:05:07;5.20;1.00
1602;DHT22;794;48.592;9.634;2024-03-08T19:07:41;5.00;1.00
1602;DHT22;794;48.592;9.634;2024-03-08T19:10:09;5.20;1.00
1602;DHT22;794;48.592;9.634;2024-03-08T19:12:39;5.00;1.00
1602;DHT22;794;48.592;9.634;2024-03-08T19:15:09;5.20;1.00
1602;DHT22;794;48.592;9.634;2024-03-08T19:17:36;4.80;1.00
1602;DHT22;794;48.592;9.634;2024-03-08T19:20:05;4.90;1.00
1602;DHT22;794;48.592;9.634;2024-03-08T19:30:06;4.80;1.00
1602;DHT22;794;48.592;9.634;2024-03-08T19:32:34;4.60;1.00
1602;DHT22;794;48.592;9.634;2024-03-08T19:35:04;4.80;1.00
1602;DHT22;794;48.592;9.634;2024-03-08T19:37:41;5.20;1.00
1602;DHT22;794;48.592;9.634;2024-03-08T19:40:10;5.40;1.00
1602;DHT22;794;48.592;9.634;2024-03-08T19:42:45;4.70;1.00
1602;DHT22;794;48.592;9.634;2024-03-08T19:45:13;4.70;1.00
1602;DHT22;794;48.592;9.634;2024-03-08T19:50:10;4.80;1.00
1602;DHT22;794;48.592;9.634;2024-03-08T19:52:41;5.00;1.00
1602;DHT22;794;48.592;9.634;2024-03-08T19:55:10;4.70;1.00
1602;DHT22;794;48.592;9.634;2024-03-08T19:57:38;4.60;1.00
1602;DHT22;794;48.592;9.634;2024-03-08T20:00:08;4.50;1.00
1602;DHT22;794;48.592;9.634;2024-03-08T20:02:42;4.60;1.00
1602;DHT22;794;48.592;9.634;2024-03-08T20:05:09;4.90;1.00
1602;DHT22;794;48.592;9.634;2024-03-08T20:07:39;4.70;1.00
1602;DHT22;794;48.592;9.634;2024-03-08T20:10:07;4.40;1.00
1602;DHT22;794;48.592;9.634;2024-03-08T20:12:36;4.70;1.00
1602;DHT22;794;48.592;9.634;2024-03-08T20:15:05;5.00;1.00
1602;DHT22;794;48.592;9.634;2024-03-08T20:17:33;4.60;1.00
1602;DHT22;794;48.592;9.634;2024-03-08T20:20:03;4.90;1.00
1602;DHT22;794;48.592;9.634;2024-03-08T20:22:30;4.50;1.00
1602;DHT22;794;48.592;9.634;2024-03-08T20:24:57;4.60;1.00
1602;DHT22;794;48.592;9.634;2024-03-08T20:27:25;4.50;1.00
1602;DHT22;794;48.592;9.634;2024-03-08T20:29:53;4.40;1.00
1602;DHT22;794;48.592;9.634;2024-03-08T20:34:47;4.70;1.00
1602;DHT22;794;48.592;9.634;2024-03-08T20:37:15;4.50;1.00
1602;DHT22;794;48.592;9.634;2024-03-08T20:39:45;5.30;1.00
1602;DHT22;794;48.592;9.634;2024-03-08T20:42:14;4.40;1.00
1602;DHT22;794;48.592;9.634;2024-03-08T20:49:38;4.40;1.00
1602;DHT22;794;48.592;9.634;2024-03-08T20:52:05;5.10;1.00
1602;DHT22;794;48.592;9.634;2024-03-08T20:54:34;4.70;1.00
1602;DHT22;794;48.592;9.634;2024-03-08T20:57:01;4.60;1.00
1602;DHT22;794;48.592;9.634;2024-03-08T20:59:29;4.40;1.00
1602;DHT22;794;48.592;9.634;2024-03-08T21:04:23;4.20;1.00
1602;DHT22;794;48.592;9.634;2024-03-08T21:06:50;4.10;1.00
1602;DHT22;794;48.592;9.634;2024-03-08T21:09:17;5.20;1.00
1602;DHT22;794;48.592;9.634;2024-03-08T21:11:46;5.40;1.00
1602;DHT22;794;48.592;9.634;2024-03-08T21:14:13;4.60;1.00
1602;DHT22;794;48.592;9.634;2024-03-08T21:16:40;5.10;1.00
1602;DHT22;794;48.592;9.634;2024-03-08T21:19:07;3.00;1.00
1602;DHT22;794;48.592;9.634;2024-03-08T21:21:34;4.50;1.00
1602;DHT22;794;48.592;9.634;2024-03-08T21:24:02;5.10;1.00
1602;DHT22;794;48.592;9.634;2024-03-08T21:26:30;4.20;1.00
1602;DHT22;794;48.592;9.634;2024-03-08T21:28:58;4.40;1.00
1602;DHT22;794;48.592;9.634;2024-03-08T21:31:25;4.30;1.00
1602;DHT22;794;48.592;9.634;2024-03-08T21:33:53;4.00;1.00
1602;DHT22;794;48.592;9.634;2024-03-08T21:36:20;3.90;1.00
1602;DHT22;794;48.592;9.634;2024-03-08T21:38:47;4.00;1.00
1602;DHT22;794;48.592;9.634;2024-03-08T21:41:14;3.90;1.00
1602;DHT22;794;48.592;9.634;2024-03-08T21:43:41;4.00;1.00
1602;DHT22;794;48.592;9.634;2024-03-08T21:46:10;4.10;1.00
1602;DHT22;794;48.592;9.634;2024-03-08T21:51:05;4.00;1.00
1602;DHT22;794;48.592;9.634;2024-03-08T21:53:32;3.90;1.00
1602;DHT22;794;48.592;9.634;2024-03-08T21:56:02;3.80;1.00
1602;DHT22;794;48.592;9.634;2024-03-08T21:58:30;3.80;1.00
1602;DHT22;794;48.592;9.634;2024-03-08T22:00:58;4.40;1.00
1602;DHT22;794;48.592;9.634;2024-03-08T22:03:26;4.20;1.00
1602;DHT22;794;48.592;9.634;2024-03-08T22:08:24;4.20;1.00
1602;DHT22;794;48.592;9.634;2024-03-08T22:10:52;5.30;1.00
1602;DHT22;794;48.592;9.634;2024-03-08T22:13:21;4.20;1.00
1602;DHT22;794;48.592;9.634;2024-03-08T22:15:48;5.40;1.00
1602;DHT22;794;48.592;9.634;2024-03-08T22:18:17;4.10;1.00
1602;DHT22;794;48.592;9.634;2024-03-08T22:20:45;4.50;1.00
1602;DHT22;794;48.592;9.634;2024-03-08T22:23:12;3.90;1.00
1602;DHT22;794;48.592;9.634;2024-03-08T22:25:40;4.00;1.00
1602;DHT22;794;48.592;9.634;2024-03-08T22:30:35;4.10;1.00
1602;DHT22;794;48.592;9.634;2024-03-08T22:33:03;4.00;1.00
1602;DHT22;794;48.592;9.634;2024-03-08T22:35:30;4.10;1.00
1602;DHT22;794;48.592;9.634;2024-03-08T22:38:00;4.40;1.00
1602;DHT22;794;48.592;9.634;2024-03-08T22:40:28;3.80;1.00
1602;DHT22;794;48.592;9.634;2024-03-08T22:42:57;5.40;1.00
1602;DHT22;794;48.592;9.634;2024-03-08T22:45:24;3.60;1.00
1602;DHT22;794;48.592;9.634;2024-03-08T22:47:53;3.90;1.00
1602;DHT22;794;48.592;9.634;2024-03-08T22:50:20;4.00;1.00
1602;DHT22;794;48.592;9.634;2024-03-08T22:52:50;3.80;1.00
1602;DHT22;794;48.592;9.634;2024-03-08T22:55:19;3.50;1.00
1602;DHT22;794;48.592;9.634;2024-03-08T22:57:46;3.60;1.00
1602;DHT22;794;48.592;9.634;2024-03-08T23:00:14;3.90;1.00
1602;DHT22;794;48.592;9.634;2024-03-08T23:03:04;3.50;1.00
1602;DHT22;794;48.592;9.634;2024-03-08T23:05:33;3.40;1.00
1602;DHT22;794;48.592;9.634;2024-03-08T23:08:03;3.30;1.00
1602;DHT22;794;48.592;9.634;2024-03-08T23:10:31;3.70;1.00
1602;DHT22;794;48.592;9.634;2024-03-08T23:12:58;3.90;1.00
1602;DHT22;794;48.592;9.634;2024-03-08T23:15:25;4.40;1.00
1602;DHT22;794;48.592;9.634;2024-03-08T23:17:53;3.40;1.00
1602;DHT22;794;48.592;9.634;2024-03-08T23:20:22;3.70;1.00
1602;DHT22;794;48.592;9.634;2024-03-08T23:22:57;3.30;1.00
1602;DHT22;794;48.592;9.634;2024-03-08T23:25:29;3.60;1.00
1602;DHT22;794;48.592;9.634;2024-03-08T23:27:58;3.50;1.00
1602;DHT22;794;48.592;9.634;2024-03-08T23:30:27;3.60;1.00
1602;DHT22;794;48.592;9.634;2024-03-08T23:32:54;5.20;1.00
1602;DHT22;794;48.592;9.634;2024-03-08T23:37:53;3.30;1.00
1602;DHT22;794;48.592;9.634;2024-03-08T23:40:20;4.10;1.00
1602;DHT22;794;48.592;9.634;2024-03-08T23:42:49;4.70;1.00
1602;DHT22;794;48.592;9.634;2024-03-08T23:45:19;5.00;1.00
1602;DHT22;794;48.592;9.634;2024-03-08T23:47:47;3.40;1.00
1602;DHT22;794;48.592;9.634;2024-03-08T23:50:16;3.70;1.00
1602;DHT22;794;48.592;9.634;2024-03-08T23:52:46;3.40;1.00
1602;DHT22;794;48.592;9.634;2024-03-08T23:55:13;3.80;1.00
1602;DHT22;794;48.592;9.634;2024-03-08T23:57:45;3.80;1.00
